Time;durP1;ratioP1;P1;durP2;ratioP2;P2;SDS_P1;SDS_P2;PMS_P1;PMS_P2;Temp;Humidity;BMP_temperature;BMP_pressure;BME280_temperature;BME280_humidity;BME280_pressure;Samples;Min_cycle;Max_cycle;Signal;HPM_P1;HPM_P2
2022/09/22 00:01:30;;;;;;;10.80;7.03;;;;;;;;;;5031571;28;20497;-45
2022/09/22 00:03:57;;;;;;;6.07;4.70;;;;;;;;;;5031086;28;20495;-45
2022/09/22 00:06:25;;;;;;;5.80;5.20;;;;;;;;;;5031700;28;20418;-45
2022/09/22 00:08:53;;;;;;;6.57;5.27;;;;;;;;;;5031594;28;20412;-45
2022/09/22 00:11:29;;;;;;;11.80;4.60;;;;;;;;;;5035328;28;20399;-45
2022/09/22 00:13:57;;;;;;;9.23;4.80;;;;;;;;;;5035155;28;20411;-45
2022/09/22 00:16:25;;;;;;;5.80;4.83;;;;;;;;;;5035567;28;20427;-45
2022/09/22 00:18:51;;;;;;;7.40;6.23;;;;;;;;;;5035859;28;20787;-45
2022/09/22 00:21:18;;;;;;;8.23;5.27;;;;;;;;;;5035668;28;20409;-45
2022/09/22 00:23:46;;;;;;;7.93;5.40;;;;;;;;;;5034908;28;20452;-45
2022/09/22 00:26:14;;;;;;;6.83;4.90;;;;;;;;;;5035428;28;20457;-45
2022/09/22 00:28:40;;;;;;;7.30;4.50;;;;;;;;;;5035392;28;20397;-45
2022/09/22 00:31:07;;;;;;;7.37;4.73;;;;;;;;;;5035364;28;20402;-45
2022/09/22 00:33:34;;;;;;;6.80;4.90;;;;;;;;;;5034762;28;20475;-45
2022/09/22 00:36:01;;;;;;;10.40;5.90;;;;;;;;;;5035190;28;20398;-45
2022/09/22 00:38:26;;;;;;;10.97;5.47;;;;;;;;;;5035147;28;20486;-45
2022/09/22 00:40:53;;;;;;;9.23;5.80;;;;;;;;;;5035202;28;20453;-44
2022/09/22 00:43:24;;;;;;;9.13;5.50;;;;;;;;;;5034452;28;20486;-45
2022/09/22 00:45:55;;;;;;;5.93;5.00;;;;;;;;;;5035161;28;20402;-45
2022/09/22 00:48:23;;;;;;;5.60;4.93;;;;;;;;;;5035397;28;20408;-45
2022/09/22 00:50:51;;;;;;;6.37;5.77;;;;;;;;;;5035022;28;20414;-45
2022/09/22 00:53:18;;;;;;;6.27;4.77;;;;;;;;;;5034422;28;20410;-45
2022/09/22 00:55:50;;;;;;;7.20;5.10;;;;;;;;;;5034927;28;20406;-45
2022/09/22 00:58:18;;;;;;;6.70;5.27;;;;;;;;;;5034946;28;20431;-45
2022/09/22 01:00:44;;;;;;;9.60;5.10;;;;;;;;;;5034904;28;20801;-45
2022/09/22 01:03:19;;;;;;;6.20;5.37;;;;;;;;;;5032135;28;20630;-45
2022/09/22 01:05:46;;;;;;;5.87;5.13;;;;;;;;;;5032991;28;20462;-45
2022/09/22 01:08:12;;;;;;;7.50;4.77;;;;;;;;;;5033280;28;20450;-44
2022/09/22 01:10:39;;;;;;;7.13;4.97;;;;;;;;;;5033333;28;20495;-45
2022/09/22 01:13:31;;;;;;;9.03;5.37;;;;;;;;;;5032842;28;20414;-45
2022/09/22 01:15:57;;;;;;;7.67;5.07;;;;;;;;;;5017429;28;20417;-45
2022/09/22 01:18:41;;;;;;;7.77;5.00;;;;;;;;;;5033390;28;20414;-45
2022/09/22 01:21:19;;;;;;;4.53;4.20;;;;;;;;;;5032879;28;20900;-45
2022/09/22 01:24:03;;;;;;;8.10;4.60;;;;;;;;;;5032657;28;20412;-45
2022/09/22 01:26:29;;;;;;;3.87;3.30;;;;;;;;;;5033261;28;20428;-44
2022/09/22 01:29:13;;;;;;;3.70;3.40;;;;;;;;;;5033212;28;20480;-45
2022/09/22 01:31:50;;;;;;;5.00;4.20;;;;;;;;;;5033182;28;20439;-45
2022/09/22 01:34:34;;;;;;;6.20;4.47;;;;;;;;;;5032748;28;20396;-44
2022/09/22 01:37:00;;;;;;;5.60;3.63;;;;;;;;;;5031749;28;20458;-45
2022/09/22 01:39:33;;;;;;;4.33;4.00;;;;;;;;;;5032971;28;20481;-45
2022/09/22 01:41:59;;;;;;;3.47;3.17;;;;;;;;;;5032677;28;20501;-45
2022/09/22 01:44:33;;;;;;;4.43;3.30;;;;;;;;;;5032542;28;20957;-45
2022/09/22 01:47:09;;;;;;;4.60;4.00;;;;;;;;;;5032840;28;20432;-45
2022/09/22 01:49:37;;;;;;;4.03;3.20;;;;;;;;;;5032884;28;20909;-45
2022/09/22 01:52:06;;;;;;;6.87;3.93;;;;;;;;;;5032649;28;20877;-45
2022/09/22 01:54:41;;;;;;;7.70;3.63;;;;;;;;;;5032361;28;20417;-45
2022/09/22 01:57:13;;;;;;;4.50;4.10;;;;;;;;;;5032877;28;20850;-45
2022/09/22 01:59:41;;;;;;;4.73;4.00;;;;;;;;;;5032827;28;20802;-45
2022/09/22 02:02:11;;;;;;;8.77;4.93;;;;;;;;;;4995423;28;1071152;-45
2022/09/22 02:04:44;;;;;;;5.27;3.57;;;;;;;;;;5033198;28;20412;-45
2022/09/22 02:07:18;;;;;;;5.70;4.67;;;;;;;;;;5033508;28;20463;-45
2022/09/22 02:09:45;;;;;;;4.40;3.63;;;;;;;;;;5033593;28;20415;-45
2022/09/22 02:12:11;;;;;;;4.37;3.97;;;;;;;;;;5033332;28;20410;-45
2022/09/22 02:14:37;;;;;;;7.50;4.03;;;;;;;;;;5033077;28;20930;-45
2022/09/22 02:17:03;;;;;;;6.37;4.20;;;;;;;;;;5033334;28;20430;-45
2022/09/22 02:19:29;;;;;;;6.57;3.97;;;;;;;;;;5033321;28;20416;-45
2022/09/22 02:21:55;;;;;;;5.87;4.07;;;;;;;;;;5033169;28;20461;-45
2022/09/22 02:24:44;;;;;;;6.17;4.03;;;;;;;;;;5033026;28;20396;-45
2022/09/22 02:27:22;;;;;;;16.83;4.70;;;;;;;;;;5027720;28;20434;-44
2022/09/22 02:29:50;;;;;;;6.93;4.03;;;;;;;;;;5033052;28;20459;-45
2022/09/22 02:32:17;;;;;;;7.73;4.43;;;;;;;;;;5032195;28;20412;-45
2022/09/22 02:34:44;;;;;;;11.20;3.83;;;;;;;;;;5032646;28;20413;-45
2022/09/22 02:37:13;;;;;;;3.80;3.50;;;;;;;;;;5032882;28;20422;-45
2022/09/22 02:39:39;;;;;;;4.80;3.50;;;;;;;;;;5033295;28;20457;-45
2022/09/22 02:42:20;;;;;;;4.13;3.73;;;;;;;;;;5032575;28;20484;-45
2022/09/22 02:44:49;;;;;;;6.17;4.47;;;;;;;;;;5032461;28;20405;-45
2022/09/22 02:47:21;;;;;;;6.23;4.43;;;;;;;;;;5032802;28;20686;-44
2022/09/22 02:49:48;;;;;;;4.30;3.90;;;;;;;;;;5032665;28;20905;-45
2022/09/22 02:52:18;;;;;;;5.23;4.10;;;;;;;;;;5032662;28;20440;-45
2022/09/22 02:54:43;;;;;;;6.47;4.43;;;;;;;;;;5032224;28;20893;-45
2022/09/22 02:57:10;;;;;;;4.43;3.93;;;;;;;;;;5032307;28;20463;-45
2022/09/22 02:59:36;;;;;;;7.57;4.40;;;;;;;;;;5032548;28;20407;-44
2022/09/22 03:02:02;;;;;;;5.00;4.57;;;;;;;;;;5032197;28;20495;-45
2022/09/22 03:04:28;;;;;;;8.33;4.50;;;;;;;;;;5032060;28;20444;-45
2022/09/22 03:06:54;;;;;;;5.27;4.00;;;;;;;;;;5032500;28;20425;-45
2022/09/22 03:09:20;;;;;;;4.53;3.93;;;;;;;;;;5032271;28;20973;-45
2022/09/22 03:11:45;;;;;;;4.33;3.87;;;;;;;;;;5032388;28;20416;-44
2022/09/22 03:14:12;;;;;;;7.97;4.83;;;;;;;;;;5031760;28;20408;-45
2022/09/22 03:16:37;;;;;;;5.30;4.07;;;;;;;;;;5032769;28;20432;-44
2022/09/22 03:19:05;;;;;;;5.53;4.40;;;;;;;;;;5032245;28;20417;-45
2022/09/22 03:21:31;;;;;;;6.10;4.20;;;;;;;;;;5032166;28;20407;-45
2022/09/22 03:23:56;;;;;;;5.67;4.40;;;;;;;;;;5031482;28;20411;-45
2022/09/22 03:26:22;;;;;;;6.00;5.10;;;;;;;;;;5032107;28;20436;-45
2022/09/22 03:28:48;;;;;;;5.97;3.80;;;;;;;;;;5032092;28;20427;-44
2022/09/22 03:31:14;;;;;;;4.97;4.47;;;;;;;;;;5032132;28;20395;-45
2022/09/22 03:33:40;;;;;;;7.60;5.10;;;;;;;;;;5031485;28;20902;-44
2022/09/22 03:36:06;;;;;;;4.73;4.20;;;;;;;;;;5030902;28;20469;-44
2022/09/22 03:38:32;;;;;;;5.33;3.83;;;;;;;;;;5031974;28;20409;-45
2022/09/22 03:41:00;;;;;;;5.67;4.13;;;;;;;;;;5031992;28;20408;-45
2022/09/22 03:43:26;;;;;;;6.60;4.80;;;;;;;;;;5031136;28;20468;-45
2022/09/22 03:45:57;;;;;;;8.00;5.17;;;;;;;;;;5031872;28;20402;-45
2022/09/22 03:48:23;;;;;;;7.27;4.20;;;;;;;;;;5031832;28;20413;-44
2022/09/22 03:50:49;;;;;;;7.53;4.40;;;;;;;;;;5032002;28;20408;-45
2022/09/22 03:53:15;;;;;;;5.83;4.10;;;;;;;;;;5031600;28;20418;-44
2022/09/22 03:55:41;;;;;;;8.53;3.67;;;;;;;;;;5031798;28;20885;-45
2022/09/22 03:58:07;;;;;;;7.23;3.87;;;;;;;;;;5031667;28;20510;-45
2022/09/22 04:00:33;;;;;;;6.37;4.30;;;;;;;;;;5031724;28;20411;-45
2022/09/22 04:02:59;;;;;;;9.80;4.23;;;;;;;;;;5030951;28;20460;-44
2022/09/22 04:05:25;;;;;;;4.67;4.03;;;;;;;;;;5031670;28;20490;-44
2022/09/22 04:07:51;;;;;;;6.70;4.73;;;;;;;;;;5031637;28;20419;-44
2022/09/22 04:10:17;;;;;;;9.40;5.00;;;;;;;;;;5031619;28;20892;-44
2022/09/22 04:12:43;;;;;;;6.17;4.60;;;;;;;;;;5031602;28;20403;-45
2022/09/22 04:15:09;;;;;;;6.13;4.30;;;;;;;;;;5031111;28;20463;-45
2022/09/22 04:17:35;;;;;;;9.90;4.27;;;;;;;;;;5031566;28;20989;-44
2022/09/22 04:20:02;;;;;;;7.17;4.20;;;;;;;;;;5031572;28;20405;-44
2022/09/22 04:22:28;;;;;;;7.40;4.83;;;;;;;;;;5031347;28;20442;-44
2022/09/22 04:24:54;;;;;;;8.33;4.67;;;;;;;;;;5031139;28;20481;-44
2022/09/22 04:27:20;;;;;;;7.80;4.80;;;;;;;;;;5031439;28;20553;-45
2022/09/22 04:29:46;;;;;;;13.20;4.50;;;;;;;;;;5031379;28;20499;-44
2022/09/22 04:32:13;;;;;;;15.30;5.63;;;;;;;;;;5031260;28;20415;-45
2022/09/22 04:34:39;;;;;;;8.73;6.00;;;;;;;;;;5031021;28;20408;-45
2022/09/22 04:37:05;;;;;;;10.50;5.27;;;;;;;;;;5029811;28;20429;-45
2022/09/22 04:39:31;;;;;;;7.20;5.40;;;;;;;;;;5031377;28;20399;-45
2022/09/22 04:41:57;;;;;;;7.73;4.90;;;;;;;;;;5031108;28;20450;-45
2022/09/22 04:44:23;;;;;;;10.40;5.40;;;;;;;;;;5030921;28;20758;-44
2022/09/22 04:46:49;;;;;;;8.37;4.80;;;;;;;;;;5031288;28;20427;-45
2022/09/22 04:49:16;;;;;;;4.57;4.17;;;;;;;;;;5031222;28;20408;-45
2022/09/22 04:51:42;;;;;;;11.00;5.50;;;;;;;;;;5031315;28;20433;-45
2022/09/22 04:54:08;;;;;;;10.47;4.70;;;;;;;;;;5030643;28;20434;-45
2022/09/22 04:56:34;;;;;;;7.33;4.90;;;;;;;;;;5033234;28;20426;-45
2022/09/22 04:59:00;;;;;;;5.50;5.10;;;;;;;;;;5034917;28;20912;-44
2022/09/22 05:01:26;;;;;;;5.00;4.30;;;;;;;;;;5035026;28;20395;-44
2022/09/22 05:03:53;;;;;;;6.67;4.80;;;;;;;;;;5034111;28;20897;-44
2022/09/22 05:06:19;;;;;;;14.13;5.30;;;;;;;;;;5034560;28;20980;-45
2022/09/22 05:08:45;;;;;;;5.33;4.70;;;;;;;;;;5034607;28;20403;-45
2022/09/22 05:11:11;;;;;;;8.10;5.43;;;;;;;;;;5034708;28;20403;-45
2022/09/22 05:13:39;;;;;;;8.10;6.10;;;;;;;;;;5033940;28;20415;-45
2022/09/22 05:16:07;;;;;;;10.43;6.40;;;;;;;;;;5033942;28;20822;-45
2022/09/22 05:18:33;;;;;;;11.90;6.50;;;;;;;;;;5034655;28;20888;-45
2022/09/22 05:20:59;;;;;;;11.90;6.63;;;;;;;;;;5034290;28;20441;-45
2022/09/22 05:23:25;;;;;;;8.90;5.90;;;;;;;;;;5033574;28;20461;-45
2022/09/22 05:25:51;;;;;;;8.27;5.67;;;;;;;;;;5034289;28;20408;-44
2022/09/22 05:28:17;;;;;;;7.57;5.80;;;;;;;;;;5034199;28;20423;-44
2022/09/22 05:30:42;;;;;;;11.63;6.43;;;;;;;;;;5034252;28;20406;-44
2022/09/22 05:33:08;;;;;;;14.90;5.33;;;;;;;;;;5033629;28;20415;-45
2022/09/22 05:35:34;;;;;;;14.87;5.60;;;;;;;;;;5032697;28;20438;-45
2022/09/22 05:38:00;;;;;;;7.90;5.37;;;;;;;;;;5033970;28;20435;-45
2022/09/22 05:40:26;;;;;;;10.97;6.63;;;;;;;;;;5034155;28;20497;-45
2022/09/22 05:42:53;;;;;;;13.10;5.23;;;;;;;;;;5033701;28;20448;-44
2022/09/22 05:45:20;;;;;;;8.80;5.03;;;;;;;;;;5033976;28;20405;-45
2022/09/22 05:47:46;;;;;;;10.20;5.67;;;;;;;;;;5033832;28;20416;-45
2022/09/22 05:50:13;;;;;;;6.50;5.70;;;;;;;;;;5033854;28;20819;-45
2022/09/22 05:52:39;;;;;;;7.13;6.10;;;;;;;;;;5033912;28;20783;-45
2022/09/22 05:55:06;;;;;;;9.43;5.10;;;;;;;;;;5033442;28;20417;-45
2022/09/22 05:57:32;;;;;;;12.33;5.90;;;;;;;;;;5033783;28;20420;-44
2022/09/22 05:59:58;;;;;;;10.00;6.43;;;;;;;;;;5033730;28;20774;-45
2022/09/22 06:02:24;;;;;;;13.80;6.17;;;;;;;;;;5033565;28;20459;-45
2022/09/22 06:04:51;;;;;;;8.97;5.40;;;;;;;;;;5033139;28;20431;-45
2022/09/22 06:07:19;;;;;;;9.70;6.03;;;;;;;;;;5032674;28;20425;-44
2022/09/22 06:09:45;;;;;;;11.07;6.00;;;;;;;;;;5033817;28;20409;-45
2022/09/22 06:12:11;;;;;;;11.70;6.50;;;;;;;;;;5033384;28;20491;-45
2022/09/22 06:14:37;;;;;;;8.50;6.00;;;;;;;;;;5033069;28;20408;-44
2022/09/22 06:17:03;;;;;;;12.53;5.97;;;;;;;;;;5033336;28;20481;-44
2022/09/22 06:19:29;;;;;;;7.47;5.80;;;;;;;;;;5033512;28;20434;-45
2022/09/22 06:21:56;;;;;;;8.80;5.70;;;;;;;;;;5033302;28;20950;-45
2022/09/22 06:24:22;;;;;;;6.20;5.27;;;;;;;;;;5032716;28;20407;-45
2022/09/22 06:26:49;;;;;;;16.73;6.17;;;;;;;;;;5033277;28;20499;-45
2022/09/22 06:29:15;;;;;;;9.13;6.10;;;;;;;;;;5035707;28;20424;-45
2022/09/22 06:31:41;;;;;;;11.90;6.30;;;;;;;;;;5042415;28;20409;-45
2022/09/22 06:34:07;;;;;;;9.67;5.77;;;;;;;;;;5034967;28;20423;-45
2022/09/22 06:36:33;;;;;;;6.93;5.20;;;;;;;;;;5032063;28;20521;-45
2022/09/22 06:39:00;;;;;;;9.60;5.67;;;;;;;;;;5032948;28;20906;-45
2022/09/22 06:41:31;;;;;;;6.93;5.33;;;;;;;;;;5033022;28;20444;-45
2022/09/22 06:43:57;;;;;;;10.87;5.90;;;;;;;;;;5032272;28;20461;-45
2022/09/22 06:46:27;;;;;;;8.63;5.23;;;;;;;;;;5032854;28;20469;-45
2022/09/22 06:48:56;;;;;;;6.37;5.23;;;;;;;;;;5032776;28;20477;-45
2022/09/22 06:51:33;;;;;;;11.50;5.90;;;;;;;;;;5032753;28;20457;-45
2022/09/22 06:54:00;;;;;;;6.47;5.30;;;;;;;;;;5032238;28;20394;-44
2022/09/22 06:56:27;;;;;;;7.97;5.10;;;;;;;;;;5032520;28;20407;-45
2022/09/22 06:58:55;;;;;;;8.73;5.10;;;;;;;;;;5032436;28;20452;-45
2022/09/22 07:01:22;;;;;;;9.30;4.60;;;;;;;;;;5032579;28;20813;-43
2022/09/22 07:03:48;;;;;;;5.80;4.77;;;;;;;;;;5031772;28;20873;-45
2022/09/22 07:06:17;;;;;;;11.57;5.20;;;;;;;;;;5032480;28;20833;-45
2022/09/22 07:08:43;;;;;;;9.47;4.90;;;;;;;;;;5032419;28;20915;-43
2022/09/22 07:11:10;;;;;;;7.97;5.23;;;;;;;;;;5032341;28;20812;-43
2022/09/22 07:13:37;;;;;;;6.90;5.00;;;;;;;;;;5031774;28;20405;-43
2022/09/22 07:16:17;;;;;;;6.63;4.47;;;;;;;;;;5032249;28;20397;-43
2022/09/22 07:18:44;;;;;;;9.00;4.33;;;;;;;;;;5031686;28;20424;-43
2022/09/22 07:21:11;;;;;;;7.10;4.33;;;;;;;;;;5031000;28;20413;-43
2022/09/22 07:23:37;;;;;;;7.37;3.97;;;;;;;;;;5031450;28;20825;-43
2022/09/22 07:26:04;;;;;;;7.33;4.60;;;;;;;;;;5031070;28;20414;-43
2022/09/22 07:28:31;;;;;;;7.60;3.60;;;;;;;;;;5032097;28;20969;-44
2022/09/22 07:31:06;;;;;;;9.10;4.57;;;;;;;;;;5032157;28;20880;-43
2022/09/22 07:33:33;;;;;;;9.70;4.77;;;;;;;;;;5031553;28;20420;-43
2022/09/22 07:36:00;;;;;;;4.93;3.80;;;;;;;;;;5031908;28;20411;-44
2022/09/22 07:38:32;;;;;;;6.40;4.77;;;;;;;;;;5032015;28;20484;-46
2022/09/22 07:40:59;;;;;;;5.23;3.97;;;;;;;;;;5032178;28;20482;-43
2022/09/22 07:43:25;;;;;;;6.00;3.80;;;;;;;;;;5036661;28;20523;-44
2022/09/22 07:45:56;;;;;;;7.17;3.83;;;;;;;;;;5051228;28;20865;-45
2022/09/22 07:48:55;;;;;;;6.23;3.67;;;;;;;;;;5051654;28;20785;-44
2022/09/22 07:51:18;;;;;;;6.53;3.80;;;;;;;;;;5051602;28;20463;-43
2022/09/22 07:53:44;;;;;;;5.40;3.30;;;;;;;;;;5051122;28;20413;-46
2022/09/22 07:56:11;;;;;;;6.00;3.27;;;;;;;;;;5051667;28;20412;-47
2022/09/22 07:58:37;;;;;;;4.43;3.10;;;;;;;;;;5051298;28;20500;-44
2022/09/22 08:01:07;;;;;;;3.90;3.50;;;;;;;;;;5051624;28;20781;-43
2022/09/22 08:03:36;;;;;;;5.40;3.20;;;;;;;;;;5051337;28;20457;-44
2022/09/22 08:06:09;;;;;;;4.13;3.03;;;;;;;;;;5051634;28;20372;-45
2022/09/22 08:08:35;;;;;;;6.47;3.90;;;;;;;;;;5051561;28;20389;-45
2022/09/22 08:11:05;;;;;;;5.07;3.00;;;;;;;;;;5049235;28;20415;-45
2022/09/22 08:13:33;;;;;;;4.97;2.97;;;;;;;;;;5050646;28;20397;-45
2022/09/22 08:15:59;;;;;;;6.50;4.50;;;;;;;;;;5051283;28;20463;-45
2022/09/22 08:18:26;;;;;;;5.77;3.10;;;;;;;;;;5051394;28;20480;-46
2022/09/22 08:20:52;;;;;;;6.47;3.33;;;;;;;;;;5051412;28;20480;-46
2022/09/22 08:23:18;;;;;;;5.43;3.00;;;;;;;;;;5050807;28;20570;-45
2022/09/22 08:25:44;;;;;;;5.87;4.10;;;;;;;;;;5051167;28;20447;-47
2022/09/22 08:28:11;;;;;;;2.73;2.40;;;;;;;;;;5050994;28;20425;-46
2022/09/22 08:30:38;;;;;;;5.13;3.10;;;;;;;;;;5052026;28;20896;-45
2022/09/22 08:33:04;;;;;;;6.07;3.30;;;;;;;;;;5054593;28;20421;-45
2022/09/22 08:35:30;;;;;;;4.40;2.90;;;;;;;;;;5055161;28;20412;-45
2022/09/22 08:37:56;;;;;;;3.10;2.70;;;;;;;;;;5054799;28;20824;-46
2022/09/22 08:40:22;;;;;;;6.23;3.10;;;;;;;;;;5055151;28;20404;-46
2022/09/22 08:42:54;;;;;;;4.67;2.77;;;;;;;;;;5054627;28;20545;-45
2022/09/22 08:45:34;;;;;;;8.77;3.00;;;;;;;;;;5054592;28;20899;-47
2022/09/22 08:53:48;;;;;;;3.33;2.20;;;;;;;;;;5054214;28;20401;-46
2022/09/22 08:56:17;;;;;;;4.00;2.30;;;;;;;;;;5054691;28;20406;-46
2022/09/22 08:58:48;;;;;;;5.47;2.60;;;;;;;;;;5054064;28;20500;-46
2022/09/22 09:01:20;;;;;;;2.77;2.57;;;;;;;;;;5053700;28;20515;-46
2022/09/22 09:03:53;;;;;;;5.10;2.67;;;;;;;;;;5052604;28;20548;-46
2022/09/22 09:06:19;;;;;;;2.87;2.20;;;;;;;;;;5053722;28;20417;-46
2022/09/22 09:08:49;;;;;;;2.53;2.10;;;;;;;;;;5053305;28;20812;-46
2022/09/22 09:11:18;;;;;;;8.00;2.60;;;;;;;;;;5054596;28;20476;-46
2022/09/22 09:14:02;;;;;;;2.67;2.33;;;;;;;;;;5053761;28;20488;-46
2022/09/22 09:16:44;;;;;;;2.27;1.87;;;;;;;;;;5055209;28;20471;-47
2022/09/22 09:19:26;;;;;;;5.93;2.10;;;;;;;;;;5053785;28;20600;-45
2022/09/22 09:21:54;;;;;;;2.33;1.80;;;;;;;;;;5045365;28;20405;-44
2022/09/22 09:24:33;;;;;;;3.10;1.90;;;;;;;;;;5052455;28;20393;-46
2022/09/22 09:27:05;;;;;;;2.10;1.90;;;;;;;;;;5052571;28;20924;-46
2022/09/22 09:29:32;;;;;;;5.13;2.10;;;;;;;;;;5053029;28;20393;-44
2022/09/22 09:32:01;;;;;;;2.87;1.83;;;;;;;;;;5054072;28;20430;-44
2022/09/22 09:34:28;;;;;;;2.37;1.90;;;;;;;;;;5053602;28;20484;-44
2022/09/22 09:37:01;;;;;;;1.73;1.47;;;;;;;;;;5054053;28;20425;-47
2022/09/22 09:39:30;;;;;;;3.13;1.60;;;;;;;;;;5054384;28;20787;-45
2022/09/22 09:41:56;;;;;;;2.90;1.53;;;;;;;;;;5053711;28;20503;-44
2022/09/22 09:44:26;;;;;;;2.43;1.53;;;;;;;;;;5053576;28;20420;-44
2022/09/22 09:47:06;;;;;;;2.20;1.57;;;;;;;;;;5053950;28;20459;-44
2022/09/22 09:49:33;;;;;;;5.70;1.50;;;;;;;;;;5053892;28;20439;-44
2022/09/22 09:52:03;;;;;;;1.50;1.40;;;;;;;;;;5054070;28;20397;-44
2022/09/22 09:54:29;;;;;;;3.00;1.50;;;;;;;;;;5053277;28;20401;-47
2022/09/22 09:57:09;;;;;;;2.83;1.20;;;;;;;;;;5053744;28;20436;-44
2022/09/22 10:02:26;;;;;;;4.03;1.10;;;;;;;;;;5053518;28;20507;-44
2022/09/22 10:04:57;;;;;;;2.20;1.20;;;;;;;;;;5053256;28;20789;-44
2022/09/22 10:07:25;;;;;;;1.00;0.90;;;;;;;;;;5053883;28;20421;-45
2022/09/22 10:09:52;;;;;;;1.07;0.97;;;;;;;;;;5053925;28;20448;-44
2022/09/22 10:12:26;;;;;;;1.37;1.00;;;;;;;;;;5053367;28;20408;-44
2022/09/22 10:14:59;;;;;;;1.97;1.10;;;;;;;;;;5053030;28;20925;-44
2022/09/22 10:17:39;;;;;;;0.87;0.87;;;;;;;;;;5053375;28;20418;-45
2022/09/22 10:20:25;;;;;;;1.23;1.13;;;;;;;;;;5053309;28;20420;-44
2022/09/22 10:22:51;;;;;;;1.53;1.20;;;;;;;;;;5053027;28;20925;-44
2022/09/22 10:25:20;;;;;;;2.40;1.03;;;;;;;;;;5052755;28;20401;-44
2022/09/22 10:28:24;;;;;;;3.20;1.10;;;;;;;;;;5053104;28;20425;-46
2022/09/22 10:30:59;;;;;;;1.30;1.10;;;;;;;;;;5030874;28;20461;-45
2022/09/22 10:33:24;;;;;;;1.17;0.90;;;;;;;;;;5030306;28;20433;-44
2022/09/22 10:36:06;;;;;;;1.40;1.00;;;;;;;;;;5042420;28;20447;-45
2022/09/22 10:38:35;;;;;;;1.00;0.90;;;;;;;;;;5053057;28;20807;-47
2022/09/22 10:41:03;;;;;;;1.07;0.97;;;;;;;;;;5052902;28;20403;-44
2022/09/22 10:43:30;;;;;;;1.00;0.90;;;;;;;;;;5052158;28;20456;-47
2022/09/22 10:46:09;;;;;;;0.90;0.80;;;;;;;;;;5052826;28;20451;-45
2022/09/22 10:48:35;;;;;;;2.07;0.90;;;;;;;;;;5052796;28;20425;-44
2022/09/22 10:51:07;;;;;;;1.73;0.90;;;;;;;;;;5052740;28;20804;-44
2022/09/22 10:53:52;;;;;;;1.30;0.90;;;;;;;;;;5051569;28;20205;-49
2022/09/22 10:56:39;;;;;;;1.40;0.90;;;;;;;;;;5052549;28;20411;-45
2022/09/22 10:59:11;;;;;;;1.10;1.00;;;;;;;;;;5052748;28;20397;-44
2022/09/22 11:01:36;;;;;;;1.00;0.90;;;;;;;;;;5052486;28;20419;-45
2022/09/22 11:04:21;;;;;;;1.00;0.90;;;;;;;;;;5051840;28;20964;-46
2022/09/22 11:12:59;;;;;;;1.63;1.10;;;;;;;;;;5052229;28;20435;-45
2022/09/22 11:15:33;;;;;;;1.27;1.00;;;;;;;;;;5054291;28;20543;-46
2022/09/22 11:18:12;;;;;;;1.00;0.90;;;;;;;;;;5052091;28;20424;-44
2022/09/22 11:20:42;;;;;;;2.57;1.07;;;;;;;;;;5044264;28;20913;-48
2022/09/22 11:23:27;;;;;;;1.10;1.00;;;;;;;;;;5045874;28;20452;-50
2022/09/22 11:26:08;;;;;;;3.67;1.10;;;;;;;;;;5042672;28;20761;-46
2022/09/22 11:29:05;;;;;;;1.83;1.00;;;;;;;;;;5042641;28;20953;-47
2022/09/22 11:31:50;;;;;;;0.93;0.83;;;;;;;;;;5028766;28;20449;-46
2022/09/22 11:34:34;;;;;;;1.00;0.90;;;;;;;;;;5042159;28;20404;-47
2022/09/22 11:37:00;;;;;;;1.77;1.10;;;;;;;;;;5036914;28;20472;-46
2022/09/22 11:39:38;;;;;;;2.90;1.30;;;;;;;;;;5031955;28;20414;-46
2022/09/22 11:42:06;;;;;;;1.20;1.10;;;;;;;;;;5030534;28;20552;-44
2022/09/22 11:44:32;;;;;;;1.10;1.00;;;;;;;;;;5030882;28;20394;-44
2022/09/22 11:47:04;;;;;;;2.37;1.00;;;;;;;;;;5031733;28;20424;-46
2022/09/22 11:49:30;;;;;;;1.03;0.93;;;;;;;;;;5031831;28;20513;-46
2022/09/22 11:52:08;;;;;;;2.10;1.10;;;;;;;;;;5031537;28;21121;-45
2022/09/22 11:54:53;;;;;;;1.33;1.10;;;;;;;;;;5031241;28;20194;-45
2022/09/22 11:57:22;;;;;;;1.30;1.00;;;;;;;;;;5031868;28;20453;-46
2022/09/22 11:59:54;;;;;;;1.00;0.83;;;;;;;;;;5031745;28;20482;-44
2022/09/22 12:02:25;;;;;;;1.00;0.87;;;;;;;;;;5031407;28;20469;-44
2022/09/22 12:05:01;;;;;;;2.40;1.10;;;;;;;;;;5031120;28;20493;-45
2022/09/22 12:07:32;;;;;;;1.50;0.90;;;;;;;;;;5035775;28;20897;-48
2022/09/22 12:10:06;;;;;;;1.10;1.00;;;;;;;;;;5035938;28;20800;-47
2022/09/22 12:12:33;;;;;;;1.30;1.20;;;;;;;;;;5054085;28;20428;-46
2022/09/22 12:15:06;;;;;;;1.03;0.93;;;;;;;;;;5055062;28;20893;-46
2022/09/22 12:17:36;;;;;;;0.90;0.80;;;;;;;;;;5055491;28;20708;-49
2022/09/22 12:20:14;;;;;;;1.30;0.90;;;;;;;;;;5055591;28;20956;-47
2022/09/22 12:22:58;;;;;;;1.00;0.90;;;;;;;;;;5055134;28;20484;-48
2022/09/22 12:25:44;;;;;;;1.27;1.13;;;;;;;;;;5054916;28;20429;-47
2022/09/22 12:28:17;;;;;;;1.50;1.07;;;;;;;;;;5055159;28;20428;-48
2022/09/22 12:31:05;;;;;;;1.30;1.10;;;;;;;;;;5055328;28;20389;-48
2022/09/22 12:33:33;;;;;;;2.40;1.10;;;;;;;;;;5054042;28;20900;-46
2022/09/22 12:35:59;;;;;;;1.57;1.00;;;;;;;;;;5054760;28;20454;-47
2022/09/22 12:38:25;;;;;;;1.40;0.97;;;;;;;;;;5055122;28;20492;-47
2022/09/22 12:40:53;;;;;;;1.20;1.10;;;;;;;;;;5055317;28;20862;-47
2022/09/22 12:43:23;;;;;;;1.37;1.27;;;;;;;;;;5054463;28;20510;-46
2022/09/22 12:45:49;;;;;;;1.77;1.27;;;;;;;;;;5054806;28;20404;-46
2022/09/22 12:48:17;;;;;;;1.87;1.27;;;;;;;;;;5054808;28;20425;-47
2022/09/22 12:50:44;;;;;;;1.20;1.10;;;;;;;;;;5054828;28;20412;-47
2022/09/22 12:53:16;;;;;;;2.03;1.30;;;;;;;;;;5054637;28;20398;-46
2022/09/22 12:55:42;;;;;;;1.33;1.00;;;;;;;;;;5054868;28;20940;-47
2022/09/22 12:58:21;;;;;;;1.47;1.27;;;;;;;;;;5054592;28;20503;-47
2022/09/22 13:00:47;;;;;;;1.70;0.90;;;;;;;;;;5054783;28;20415;-46
2022/09/22 13:03:25;;;;;;;2.07;1.13;;;;;;;;;;5054371;28;20500;-47
2022/09/22 13:06:10;;;;;;;1.20;1.10;;;;;;;;;;5054566;28;20451;-46
2022/09/22 13:08:36;;;;;;;1.47;1.10;;;;;;;;;;5054424;28;20421;-46
2022/09/22 13:11:05;;;;;;;1.40;1.10;;;;;;;;;;5054547;28;20393;-46
2022/09/22 13:13:31;;;;;;;1.37;1.27;;;;;;;;;;5053946;28;20776;-46
2022/09/22 13:15:58;;;;;;;3.00;1.20;;;;;;;;;;5054283;28;20488;-46
2022/09/22 13:18:27;;;;;;;1.47;1.10;;;;;;;;;;5053966;28;20651;-47
2022/09/22 13:20:53;;;;;;;1.43;1.20;;;;;;;;;;5054539;28;20401;-46
2022/09/22 13:23:19;;;;;;;1.37;1.10;;;;;;;;;;5052409;28;20464;-46
2022/09/22 13:25:45;;;;;;;2.73;1.40;;;;;;;;;;5054097;28;20402;-46
2022/09/22 13:28:12;;;;;;;2.00;1.30;;;;;;;;;;5054045;28;20944;-46
2022/09/22 13:30:40;;;;;;;1.40;1.30;;;;;;;;;;5054127;28;20405;-47
2022/09/22 13:33:17;;;;;;;3.47;1.40;;;;;;;;;;5054026;28;20491;-47
2022/09/22 13:35:44;;;;;;;1.30;1.10;;;;;;;;;;5054044;28;20412;-46
2022/09/22 13:38:11;;;;;;;1.40;1.30;;;;;;;;;;5053771;28;20932;-50
2022/09/22 13:40:37;;;;;;;1.43;1.20;;;;;;;;;;5053818;28;20909;-47
2022/09/22 13:43:07;;;;;;;1.30;1.20;;;;;;;;;;5053938;28;20457;-48
2022/09/22 13:45:34;;;;;;;1.97;0.93;;;;;;;;;;5053767;28;20382;-48
2022/09/22 13:48:11;;;;;;;1.77;1.30;;;;;;;;;;5053689;28;20843;-50
2022/09/22 13:50:39;;;;;;;1.97;1.30;;;;;;;;;;5053999;28;20416;-48
2022/09/22 13:53:06;;;;;;;1.30;1.20;;;;;;;;;;5053771;28;20433;-49
2022/09/22 13:55:36;;;;;;;1.20;1.10;;;;;;;;;;5053534;28;20445;-48
2022/09/22 13:58:02;;;;;;;1.37;1.20;;;;;;;;;;5053739;28;20456;-50
2022/09/22 14:00:32;;;;;;;1.20;1.10;;;;;;;;;;5053854;28;20427;-50
2022/09/22 14:03:00;;;;;;;1.23;1.10;;;;;;;;;;5053419;28;20460;-49
2022/09/22 14:05:28;;;;;;;1.50;1.27;;;;;;;;;;5053246;28;20404;-50
2022/09/22 14:07:56;;;;;;;2.70;1.50;;;;;;;;;;5053641;28;20424;-49
2022/09/22 14:10:24;;;;;;;1.43;1.30;;;;;;;;;;5053636;28;20413;-47
2022/09/22 14:12:50;;;;;;;4.07;1.37;;;;;;;;;;5053393;28;20397;-48
2022/09/22 14:15:34;;;;;;;1.20;1.10;;;;;;;;;;5053140;28;20409;-48
2022/09/22 14:18:00;;;;;;;2.30;1.40;;;;;;;;;;5053242;28;20805;-47
2022/09/22 14:20:27;;;;;;;1.43;1.33;;;;;;;;;;5053496;28;20433;-48
2022/09/22 14:22:53;;;;;;;1.90;1.37;;;;;;;;;;5053305;28;20553;-49
2022/09/22 14:25:21;;;;;;;2.57;1.13;;;;;;;;;;5051688;28;20398;-49
2022/09/22 14:27:58;;;;;;;1.90;1.20;;;;;;;;;;5052517;28;20426;-50
2022/09/22 14:30:29;;;;;;;1.97;1.30;;;;;;;;;;5053014;28;20940;-48
2022/09/22 14:32:57;;;;;;;1.13;1.03;;;;;;;;;;5053041;28;20483;-49
2022/09/22 14:35:26;;;;;;;1.57;1.20;;;;;;;;;;5052644;28;20402;-44
2022/09/22 14:37:53;;;;;;;1.30;1.20;;;;;;;;;;5053074;28;20421;-44
2022/09/22 14:40:20;;;;;;;1.30;1.20;;;;;;;;;;5053084;28;20725;-43
2022/09/22 14:42:56;;;;;;;1.50;1.40;;;;;;;;;;5052675;28;20457;-44
2022/09/22 14:45:23;;;;;;;2.17;1.30;;;;;;;;;;5052469;28;20401;-44
2022/09/22 14:48:08;;;;;;;1.10;1.00;;;;;;;;;;5052770;28;20421;-43
2022/09/22 14:50:37;;;;;;;1.40;1.30;;;;;;;;;;5052884;28;20769;-45
2022/09/22 14:53:10;;;;;;;1.20;1.10;;;;;;;;;;5052574;28;20971;-44
2022/09/22 14:55:38;;;;;;;4.50;1.40;;;;;;;;;;5052271;28;20472;-45
2022/09/22 14:58:06;;;;;;;2.30;1.50;;;;;;;;;;5052593;28;20421;-44
2022/09/22 15:03:27;;;;;;;1.33;1.20;;;;;;;;;;5052399;28;20542;-48
2022/09/22 15:05:54;;;;;;;1.53;1.30;;;;;;;;;;5052712;28;20432;-46
2022/09/22 15:08:26;;;;;;;1.83;1.33;;;;;;;;;;5052332;28;20491;-49
2022/09/22 15:10:55;;;;;;;1.30;1.20;;;;;;;;;;5052453;28;20460;-50
2022/09/22 15:13:28;;;;;;;2.80;1.20;;;;;;;;;;5051834;28;20437;-48